sensor_id;sensor_type;location;lat;lon;timestamp;pressure;altitude;pressure_sealevel;temperature;humidity
75420;BME280;63998;52.488;13.428;2023-08-07T00:00:03;99768.41;;;15.36;73.47
75420;BME280;63998;52.488;13.428;2023-08-07T00:02:29;99766.84;;;15.31;74.07
75420;BME280;63998;52.488;13.428;2023-08-07T00:04:54;99757.13;;;15.34;74.11
75420;BME280;63998;52.488;13.428;2023-08-07T00:07:19;99761.00;;;15.23;74.46
75420;BME280;63998;52.488;13.428;2023-08-07T00:09:45;99761.25;;;15.15;74.95
75420;BME280;63998;52.488;13.428;2023-08-07T00:12:10;99761.56;;;15.06;75.48
75420;BME280;63998;52.488;13.428;2023-08-07T00:14:35;99757.47;;;14.97;75.75
75420;BME280;63998;52.488;13.428;2023-08-07T00:17:01;99760.41;;;14.87;76.69
75420;BME280;63998;52.488;13.428;2023-08-07T00:19:26;99757.88;;;14.84;77.10
75420;BME280;63998;52.488;13.428;2023-08-07T00:21:51;99755.41;;;14.81;77.73
75420;BME280;63998;52.488;13.428;2023-08-07T00:24:17;99755.41;;;14.81;78.18
75420;BME280;63998;52.488;13.428;2023-08-07T00:26:42;99747.63;;;14.78;78.64
75420;BME280;63998;52.488;13.428;2023-08-07T00:29:07;99755.47;;;14.78;78.79
75420;BME280;63998;52.488;13.428;2023-08-07T00:31:33;99751.03;;;14.81;78.94
75420;BME280;63998;52.488;13.428;2023-08-07T00:33:59;99746.53;;;14.85;79.10
75420;BME280;63998;52.488;13.428;2023-08-07T00:36:24;99748.94;;;14.92;78.32
75420;BME280;63998;52.488;13.428;2023-08-07T00:38:50;99746.16;;;14.97;78.91
75420;BME280;63998;52.488;13.428;2023-08-07T00:41:17;99744.34;;;14.99;78.81
75420;BME280;63998;52.488;13.428;2023-08-07T00:43:43;99744.34;;;14.99;79.21
75420;BME280;63998;52.488;13.428;2023-08-07T00:46:08;99735.59;;;15.00;79.19
75420;BME280;63998;52.488;13.428;2023-08-07T00:48:34;99741.22;;;14.88;79.81
75420;BME280;63998;52.488;13.428;2023-08-07T00:50:59;99736.97;;;14.84;80.13
75420;BME280;63998;52.488;13.428;2023-08-07T00:53:25;99744.03;;;14.82;80.43
75420;BME280;63998;52.488;13.428;2023-08-07T00:55:50;99745.97;;;14.75;80.61
75420;BME280;63998;52.488;13.428;2023-08-07T00:58:17;99745.94;;;14.77;80.83
75420;BME280;63998;52.488;13.428;2023-08-07T01:00:42;99751.97;;;14.79;80.64
75420;BME280;63998;52.488;13.428;2023-08-07T01:03:08;99755.41;;;14.81;80.36
75420;BME280;63998;52.488;13.428;2023-08-07T01:05:34;99750.16;;;14.81;80.02
75420;BME280;63998;52.488;13.428;2023-08-07T01:07:59;99742.53;;;14.73;80.35
75420;BME280;63998;52.488;13.428;2023-08-07T01:10:40;99747.19;;;14.63;80.58
75420;BME280;63998;52.488;13.428;2023-08-07T01:13:18;99740.47;;;14.56;80.30
75420;BME280;63998;52.488;13.428;2023-08-07T01:15:52;99735.25;;;14.56;80.51
75420;BME280;63998;52.488;13.428;2023-08-07T01:18:21;99752.72;;;14.54;80.21
75420;BME280;63998;52.488;13.428;2023-08-07T01:20:47;99743.16;;;14.53;80.47
75420;BME280;63998;52.488;13.428;2023-08-07T01:23:12;99747.41;;;14.57;80.66
75420;BME280;63998;52.488;13.428;2023-08-07T01:25:38;99740.34;;;14.59;80.58
75420;BME280;63998;52.488;13.428;2023-08-07T01:28:12;99741.50;;;14.51;81.04
75420;BME280;63998;52.488;13.428;2023-08-07T01:30:46;99744.88;;;14.54;81.24
75420;BME280;63998;52.488;13.428;2023-08-07T01:33:47;99733.44;;;14.58;80.95
75420;BME280;63998;52.488;13.428;2023-08-07T01:36:16;99721.16;;;14.60;80.52
75420;BME280;63998;52.488;13.428;2023-08-07T01:38:43;99716.78;;;14.61;80.33
75420;BME280;63998;52.488;13.428;2023-08-07T01:41:09;99712.63;;;14.55;80.21
75420;BME280;63998;52.488;13.428;2023-08-07T01:43:34;99710.19;;;14.49;80.55
75420;BME280;63998;52.488;13.428;2023-08-07T01:46:00;99708.47;;;14.48;80.96
75420;BME280;63998;52.488;13.428;2023-08-07T01:48:25;99722.50;;;14.46;80.77
75420;BME280;63998;52.488;13.428;2023-08-07T01:50:53;99713.09;;;14.40;81.21
75420;BME280;63998;52.488;13.428;2023-08-07T01:53:18;99713.91;;;14.42;81.14
75420;BME280;63998;52.488;13.428;2023-08-07T01:55:44;99708.09;;;14.31;81.53
75420;BME280;63998;52.488;13.428;2023-08-07T01:58:09;99704.69;;;14.29;81.54
75420;BME280;63998;52.488;13.428;2023-08-07T02:00:34;99706.41;;;14.30;81.67
75420;BME280;63998;52.488;13.428;2023-08-07T02:03:00;99718.63;;;14.28;81.98
75420;BME280;63998;52.488;13.428;2023-08-07T02:05:25;99710.81;;;14.28;82.14
75420;BME280;63998;52.488;13.428;2023-08-07T02:07:50;99716.06;;;14.26;82.50
75420;BME280;63998;52.488;13.428;2023-08-07T02:10:16;99712.69;;;14.23;82.59
75420;BME280;63998;52.488;13.428;2023-08-07T02:12:41;99722.16;;;14.27;82.57
75420;BME280;63998;52.488;13.428;2023-08-07T02:15:07;99709.91;;;14.29;82.46
75420;BME280;63998;52.488;13.428;2023-08-07T02:17:32;99725.66;;;14.26;82.77
75420;BME280;63998;52.488;13.428;2023-08-07T02:19:58;99732.50;;;14.30;82.84
75420;BME280;63998;52.488;13.428;2023-08-07T02:22:23;99732.59;;;14.27;83.20
75420;BME280;63998;52.488;13.428;2023-08-07T02:24:49;99724.81;;;14.25;83.60
75420;BME280;63998;52.488;13.428;2023-08-07T02:27:14;99723.94;;;14.25;83.47
75420;BME280;63998;52.488;13.428;2023-08-07T02:29:39;99740.47;;;14.25;83.79
75420;BME280;63998;52.488;13.428;2023-08-07T02:32:05;99732.59;;;14.27;84.19
75420;BME280;63998;52.488;13.428;2023-08-07T02:34:31;99734.22;;;14.31;84.04
75420;BME280;63998;52.488;13.428;2023-08-07T02:36:56;99736.03;;;14.29;84.34
75420;BME280;63998;52.488;13.428;2023-08-07T02:39:22;99741.25;;;14.29;84.49
75420;BME280;63998;52.488;13.428;2023-08-07T02:41:47;99741.16;;;14.32;84.87
75420;BME280;63998;52.488;13.428;2023-08-07T02:44:13;99735.94;;;14.32;84.82
75420;BME280;63998;52.488;13.428;2023-08-07T02:46:38;99742.88;;;14.33;85.02
75420;BME280;63998;52.488;13.428;2023-08-07T02:49:03;99741.16;;;14.32;85.49
75420;BME280;63998;52.488;13.428;2023-08-07T02:51:30;99747.22;;;14.34;85.61
75420;BME280;63998;52.488;13.428;2023-08-07T02:53:55;99746.28;;;14.35;86.01
75420;BME280;63998;52.488;13.428;2023-08-07T02:56:20;99749.66;;;14.40;85.93
75420;BME280;63998;52.488;13.428;2023-08-07T02:58:46;99746.81;;;14.48;85.75
75420;BME280;63998;52.488;13.428;2023-08-07T03:01:11;99748.31;;;14.56;85.62
75420;BME280;63998;52.488;13.428;2023-08-07T03:03:37;99749.22;;;14.55;85.59
75420;BME280;63998;52.488;13.428;2023-08-07T03:06:03;99747.50;;;14.54;85.56
75420;BME280;63998;52.488;13.428;2023-08-07T03:08:28;99746.59;;;14.55;85.60
75420;BME280;63998;52.488;13.428;2023-08-07T03:10:55;99745.78;;;14.53;85.93
75420;BME280;63998;52.488;13.428;2023-08-07T03:13:22;99751.00;;;14.53;85.82
75420;BME280;63998;52.488;13.428;2023-08-07T03:15:47;99739.59;;;14.56;85.75
75420;BME280;63998;52.488;13.428;2023-08-07T03:18:15;99747.44;;;14.56;86.04
75420;BME280;63998;52.488;13.428;2023-08-07T03:20:40;99744.91;;;14.53;86.18
75420;BME280;63998;52.488;13.428;2023-08-07T03:23:06;99749.28;;;14.52;86.30
75420;BME280;63998;52.488;13.428;2023-08-07T03:25:31;99747.56;;;14.51;86.25
75420;BME280;63998;52.488;13.428;2023-08-07T03:27:57;99749.38;;;14.49;86.43
75420;BME280;63998;52.488;13.428;2023-08-07T03:30:22;99751.00;;;14.53;86.57
75420;BME280;63998;52.488;13.428;2023-08-07T03:32:47;99753.69;;;14.50;86.66
75420;BME280;63998;52.488;13.428;2023-08-07T03:35:13;99762.44;;;14.49;86.82
75420;BME280;63998;52.488;13.428;2023-08-07T03:37:38;99744.97;;;14.51;86.61
75420;BME280;63998;52.488;13.428;2023-08-07T03:40:04;99752.81;;;14.51;86.84
75420;BME280;63998;52.488;13.428;2023-08-07T03:42:30;99754.41;;;14.57;86.84
75420;BME280;63998;52.488;13.428;2023-08-07T03:44:55;99761.47;;;14.53;86.30
75420;BME280;63998;52.488;13.428;2023-08-07T03:47:20;99767.59;;;14.52;86.87
75420;BME280;63998;52.488;13.428;2023-08-07T03:49:46;99784.09;;;14.54;86.76
75420;BME280;63998;52.488;13.428;2023-08-07T03:52:11;99760.72;;;14.48;86.71
75420;BME280;63998;52.488;13.428;2023-08-07T03:54:36;99759.94;;;14.46;87.10
75420;BME280;63998;52.488;13.428;2023-08-07T03:57:02;99759.75;;;14.52;86.79
75420;BME280;63998;52.488;13.428;2023-08-07T03:59:27;99758.03;;;14.51;86.41
75420;BME280;63998;52.488;13.428;2023-08-07T04:01:53;99771.09;;;14.51;86.14
75420;BME280;63998;52.488;13.428;2023-08-07T04:04:18;99768.47;;;14.51;86.40
75420;BME280;63998;52.488;13.428;2023-08-07T04:06:43;99767.63;;;14.51;86.42
75420;BME280;63998;52.488;13.428;2023-08-07T04:09:09;99765.06;;;14.49;86.12
75420;BME280;63998;52.488;13.428;2023-08-07T04:11:35;99765.75;;;14.56;86.25
75420;BME280;63998;52.488;13.428;2023-08-07T04:14:01;99771.88;;;14.55;85.75
75420;BME280;63998;52.488;13.428;2023-08-07T04:16:27;99757.88;;;14.57;85.71
75420;BME280;63998;52.488;13.428;2023-08-07T04:18:52;99763.09;;;14.57;85.85
75420;BME280;63998;52.488;13.428;2023-08-07T04:21:18;99764.88;;;14.55;85.48
75420;BME280;63998;52.488;13.428;2023-08-07T04:23:43;99756.03;;;14.59;85.46
75420;BME280;63998;52.488;13.428;2023-08-07T04:26:08;99747.41;;;14.57;85.34
75420;BME280;63998;52.488;13.428;2023-08-07T04:28:34;99762.06;;;14.61;85.13
75420;BME280;63998;52.488;13.428;2023-08-07T04:30:59;99760.47;;;14.57;85.23
75420;BME280;63998;52.488;13.428;2023-08-07T04:33:24;99756.97;;;14.58;85.20
75420;BME280;63998;52.488;13.428;2023-08-07T04:35:50;99761.25;;;14.59;84.93
75420;BME280;63998;52.488;13.428;2023-08-07T04:38:15;99759.38;;;14.64;84.80
75420;BME280;63998;52.488;13.428;2023-08-07T04:40:48;99813.44;;;14.62;84.30
75420;BME280;63998;52.488;13.428;2023-08-07T04:43:15;99764.59;;;14.64;84.03
75420;BME280;63998;52.488;13.428;2023-08-07T04:45:41;99769.00;;;14.62;84.09
75420;BME280;63998;52.488;13.428;2023-08-07T04:48:07;99772.44;;;14.64;83.95
75420;BME280;63998;52.488;13.428;2023-08-07T04:50:33;99762.88;;;14.63;83.88
75420;BME280;63998;52.488;13.428;2023-08-07T04:52:58;99782.00;;;14.65;83.71
75420;BME280;63998;52.488;13.428;2023-08-07T04:55:23;99760.88;;;14.71;83.61
75420;BME280;63998;52.488;13.428;2023-08-07T04:57:49;99775.75;;;14.71;83.33
75420;BME280;63998;52.488;13.428;2023-08-07T05:00:16;99788.66;;;14.76;82.96
75420;BME280;63998;52.488;13.428;2023-08-07T05:02:42;99806.25;;;14.70;82.75
75420;BME280;63998;52.488;13.428;2023-08-07T05:05:07;99795.69;;;14.73;82.78
75420;BME280;63998;52.488;13.428;2023-08-07T05:07:34;99788.63;;;14.77;82.48
75420;BME280;63998;52.488;13.428;2023-08-07T05:10:01;99776.31;;;14.81;81.67
75420;BME280;63998;52.488;13.428;2023-08-07T05:12:27;99784.97;;;14.83;81.59
75420;BME280;63998;52.488;13.428;2023-08-07T05:14:53;99783.34;;;14.79;81.37
75420;BME280;63998;52.488;13.428;2023-08-07T05:17:18;99779.06;;;14.76;81.20
75420;BME280;63998;52.488;13.428;2023-08-07T05:19:43;99788.56;;;14.79;81.06
75420;BME280;63998;52.488;13.428;2023-08-07T05:22:08;99779.81;;;14.80;80.86
75420;BME280;63998;52.488;13.428;2023-08-07T05:24:34;99793.88;;;14.76;81.42
75420;BME280;63998;52.488;13.428;2023-08-07T05:27:05;99784.38;;;14.73;80.91
75420;BME280;63998;52.488;13.428;2023-08-07T05:29:30;99785.13;;;14.77;81.06
75420;BME280;63998;52.488;13.428;2023-08-07T05:31:55;99793.06;;;14.73;80.85
75420;BME280;63998;52.488;13.428;2023-08-07T05:34:21;99805.28;;;14.73;80.54
75420;BME280;63998;52.488;13.428;2023-08-07T05:36:46;99800.22;;;14.68;80.92
75420;BME280;63998;52.488;13.428;2023-08-07T05:39:12;99813.16;;;14.71;80.75
75420;BME280;63998;52.488;13.428;2023-08-07T05:41:38;99815.91;;;14.68;80.79
75420;BME280;63998;52.488;13.428;2023-08-07T05:44:04;99811.56;;;14.67;80.79
75420;BME280;63998;52.488;13.428;2023-08-07T05:46:30;99801.97;;;14.68;80.90
75420;BME280;63998;52.488;13.428;2023-08-07T05:48:56;99801.69;;;14.77;80.43
75420;BME280;63998;52.488;13.428;2023-08-07T05:51:21;99815.69;;;14.74;80.51
75420;BME280;63998;52.488;13.428;2023-08-07T05:53:46;99816.34;;;14.83;80.44
75420;BME280;63998;52.488;13.428;2023-08-07T05:56:11;99810.91;;;14.89;79.95
75420;BME280;63998;52.488;13.428;2023-08-07T05:58:37;99817.84;;;14.90;80.05
75420;BME280;63998;52.488;13.428;2023-08-07T06:01:02;99814.44;;;14.88;80.19
75420;BME280;63998;52.488;13.428;2023-08-07T06:03:28;99813.34;;;14.95;79.90
75420;BME280;63998;52.488;13.428;2023-08-07T06:05:53;99806.16;;;15.01;79.87
75420;BME280;63998;52.488;13.428;2023-08-07T06:08:19;99813.66;;;15.12;79.92
75420;BME280;63998;52.488;13.428;2023-08-07T06:10:44;99809.97;;;15.19;79.27
75420;BME280;63998;52.488;13.428;2023-08-07T06:13:09;99814.03;;;15.28;79.24
75420;BME280;63998;52.488;13.428;2023-08-07T06:15:35;99816.63;;;15.29;78.37
75420;BME280;63998;52.488;13.428;2023-08-07T06:18:00;99820.78;;;15.35;78.14
75420;BME280;63998;52.488;13.428;2023-08-07T06:20:25;99814.94;;;15.55;77.88
75420;BME280;63998;52.488;13.428;2023-08-07T06:22:51;99836.69;;;15.57;77.48
75420;BME280;63998;52.488;13.428;2023-08-07T06:25:16;99845.41;;;15.57;76.98
75420;BME280;63998;52.488;13.428;2023-08-07T06:27:42;99834.75;;;15.62;76.71
75420;BME280;63998;52.488;13.428;2023-08-07T06:30:07;99839.91;;;15.65;75.58
75420;BME280;63998;52.488;13.428;2023-08-07T06:32:33;99848.16;;;15.79;75.50
75420;BME280;63998;52.488;13.428;2023-08-07T06:34:59;99841.84;;;15.85;75.31
75420;BME280;63998;52.488;13.428;2023-08-07T06:37:24;99862.78;;;15.85;74.71
75420;BME280;63998;52.488;13.428;2023-08-07T06:39:49;99852.88;;;15.94;74.03
75420;BME280;63998;52.488;13.428;2023-08-07T06:42:14;99863.13;;;16.00;72.96
75420;BME280;63998;52.488;13.428;2023-08-07T06:44:40;99854.91;;;16.11;72.46
75420;BME280;63998;52.488;13.428;2023-08-07T06:47:05;99860.25;;;16.08;72.15
75420;BME280;63998;52.488;13.428;2023-08-07T06:49:31;99844.47;;;16.09;72.29
75420;BME280;63998;52.488;13.428;2023-08-07T06:51:58;99846.66;;;16.22;72.12
75420;BME280;63998;52.488;13.428;2023-08-07T06:54:23;99862.28;;;16.25;71.35
75420;BME280;63998;52.488;13.428;2023-08-07T06:56:49;99843.41;;;16.15;71.42
75420;BME280;63998;52.488;13.428;2023-08-07T06:59:14;99836.19;;;16.22;71.35
75420;BME280;63998;52.488;13.428;2023-08-07T07:01:40;99849.06;;;16.28;71.08
75420;BME280;63998;52.488;13.428;2023-08-07T07:04:05;99854.69;;;16.42;70.67
75420;BME280;63998;52.488;13.428;2023-08-07T07:06:30;99859.78;;;16.45;70.11
75420;BME280;63998;52.488;13.428;2023-08-07T07:08:56;99856.81;;;16.56;69.45
75420;BME280;63998;52.488;13.428;2023-08-07T07:11:24;99852.06;;;16.67;69.46
75420;BME280;63998;52.488;13.428;2023-08-07T07:13:50;99859.72;;;16.71;69.11
75420;BME280;63998;52.488;13.428;2023-08-07T07:16:17;99858.72;;;16.75;68.86
75420;BME280;63998;52.488;13.428;2023-08-07T07:18:42;99870.81;;;16.79;67.89
75420;BME280;63998;52.488;13.428;2023-08-07T07:21:08;99860.44;;;16.76;68.43
75420;BME280;63998;52.488;13.428;2023-08-07T07:23:33;99877.63;;;16.83;68.44
75420;BME280;63998;52.488;13.428;2023-08-07T07:25:58;99867.88;;;16.87;68.53
75420;BME280;63998;52.488;13.428;2023-08-07T07:28:24;99874.84;;;16.88;68.72
75420;BME280;63998;52.488;13.428;2023-08-07T07:30:49;99863.13;;;16.97;67.25
75420;BME280;63998;52.488;13.428;2023-08-07T07:33:16;99882.94;;;17.05;67.41
75420;BME280;63998;52.488;13.428;2023-08-07T07:35:41;99878.56;;;17.06;65.87
75420;BME280;63998;52.488;13.428;2023-08-07T07:38:07;99876.09;;;17.01;66.76
75420;BME280;63998;52.488;13.428;2023-08-07T07:40:34;99882.41;;;16.96;66.80
75420;BME280;63998;52.488;13.428;2023-08-07T07:42:59;99872.97;;;16.92;66.48
75420;BME280;63998;52.488;13.428;2023-08-07T07:45:24;99882.84;;;17.07;66.74
75420;BME280;63998;52.488;13.428;2023-08-07T07:47:50;99876.47;;;17.14;66.56
75420;BME280;63998;52.488;13.428;2023-08-07T07:50:15;99881.28;;;17.03;65.67
75420;BME280;63998;52.488;13.428;2023-08-07T07:52:41;99893.81;;;17.18;65.36
75420;BME280;63998;52.488;13.428;2023-08-07T07:55:06;99904.19;;;17.21;65.44
75420;BME280;63998;52.488;13.428;2023-08-07T07:57:34;99899.91;;;17.18;64.68
75420;BME280;63998;52.488;13.428;2023-08-07T07:59:59;99958.63;;;17.16;64.89
75420;BME280;63998;52.488;13.428;2023-08-07T08:02:26;99906.81;;;17.21;64.19
75420;BME280;63998;52.488;13.428;2023-08-07T08:04:52;99898.47;;;17.33;64.16
75420;BME280;63998;52.488;13.428;2023-08-07T08:07:18;99907.88;;;17.39;64.07
75420;BME280;63998;52.488;13.428;2023-08-07T08:09:43;99927.59;;;17.27;64.84
75420;BME280;63998;52.488;13.428;2023-08-07T08:12:09;99901.28;;;17.29;64.75
75420;BME280;63998;52.488;13.428;2023-08-07T08:14:35;99903.09;;;17.27;64.78
75420;BME280;63998;52.488;13.428;2023-08-07T08:17:00;99916.03;;;17.31;64.16
75420;BME280;63998;52.488;13.428;2023-08-07T08:19:26;99910.56;;;17.37;64.66
75420;BME280;63998;52.488;13.428;2023-08-07T08:21:51;99905.91;;;17.22;64.85
75420;BME280;63998;52.488;13.428;2023-08-07T08:24:16;99908.91;;;17.35;65.31
75420;BME280;63998;52.488;13.428;2023-08-07T08:26:42;99911.56;;;17.33;65.47
75420;BME280;63998;52.488;13.428;2023-08-07T08:29:07;99899.94;;;17.40;66.05
75420;BME280;63998;52.488;13.428;2023-08-07T08:31:35;99916.78;;;17.35;65.72
75420;BME280;63998;52.488;13.428;2023-08-07T08:34:00;99907.03;;;17.38;66.48
75420;BME280;63998;52.488;13.428;2023-08-07T08:36:26;99909.66;;;17.38;66.37
75420;BME280;63998;52.488;13.428;2023-08-07T08:38:51;99927.75;;;17.44;66.57
75420;BME280;63998;52.488;13.428;2023-08-07T08:41:17;99924.13;;;17.48;66.32
75420;BME280;63998;52.488;13.428;2023-08-07T08:43:46;99934.41;;;17.54;65.69
75420;BME280;63998;52.488;13.428;2023-08-07T08:46:14;99922.03;;;17.56;65.65
75420;BME280;63998;52.488;13.428;2023-08-07T08:48:43;99925.59;;;17.55;64.79
75420;BME280;63998;52.488;13.428;2023-08-07T08:51:12;99943.19;;;17.53;64.70
75420;BME280;63998;52.488;13.428;2023-08-07T08:53:38;99925.41;;;17.60;64.34
75420;BME280;63998;52.488;13.428;2023-08-07T08:56:05;99926.66;;;17.73;63.98
75420;BME280;63998;52.488;13.428;2023-08-07T08:58:31;99940.41;;;17.80;63.59
75420;BME280;63998;52.488;13.428;2023-08-07T09:00:57;99919.59;;;17.95;63.14
75420;BME280;63998;52.488;13.428;2023-08-07T09:03:23;99926.00;;;18.10;62.06
75420;BME280;63998;52.488;13.428;2023-08-07T09:05:49;99909.63;;;18.24;62.71
75420;BME280;63998;52.488;13.428;2023-08-07T09:08:18;99916.66;;;18.44;62.37
75420;BME280;63998;52.488;13.428;2023-08-07T09:10:44;99918.66;;;18.39;61.48
75420;BME280;63998;52.488;13.428;2023-08-07T09:13:14;99911.28;;;18.47;60.82
75420;BME280;63998;52.488;13.428;2023-08-07T09:15:39;99908.50;;;18.50;59.62
75420;BME280;63998;52.488;13.428;2023-08-07T09:18:06;99897.06;;;18.51;60.30
75420;BME280;63998;52.488;13.428;2023-08-07T09:20:33;99904.59;;;18.40;62.81
75420;BME280;63998;52.488;13.428;2023-08-07T09:22:59;99920.16;;;18.24;64.55
75420;BME280;63998;52.488;13.428;2023-08-07T09:25:29;99913.72;;;18.11;65.59
75420;BME280;63998;52.488;13.428;2023-08-07T09:27:55;99962.88;;;17.87;65.98
75420;BME280;63998;52.488;13.428;2023-08-07T09:30:26;99925.91;;;17.70;66.62
75420;BME280;63998;52.488;13.428;2023-08-07T09:32:53;99926.81;;;17.69;66.97
75420;BME280;63998;52.488;13.428;2023-08-07T09:35:21;99942.88;;;17.61;67.03
75420;BME280;63998;52.488;13.428;2023-08-07T09:37:47;99930.72;;;17.58;67.28
75420;BME280;63998;52.488;13.428;2023-08-07T09:40:12;99943.81;;;17.82;66.94
75420;BME280;63998;52.488;13.428;2023-08-07T09:42:40;99941.06;;;17.85;66.56
75420;BME280;63998;52.488;13.428;2023-08-07T09:47:44;99992.47;;;17.92;65.85
75420;BME280;63998;52.488;13.428;2023-08-07T09:50:15;99927.81;;;17.88;65.21
75420;BME280;63998;52.488;13.428;2023-08-07T09:52:41;99937.06;;;17.97;64.79
75420;BME280;63998;52.488;13.428;2023-08-07T09:55:06;99939.88;;;18.14;64.73
75420;BME280;63998;52.488;13.428;2023-08-07T09:57:32;99947.81;;;18.12;64.51
75420;BME280;63998;52.488;13.428;2023-08-07T09:59:59;99946.50;;;18.43;64.10
75420;BME280;63998;52.488;13.428;2023-08-07T10:02:25;99974.50;;;18.44;63.70
75420;BME280;63998;52.488;13.428;2023-08-07T10:04:52;99966.16;;;18.34;63.28
75420;BME280;63998;52.488;13.428;2023-08-07T10:07:19;99980.69;;;18.22;63.04
75420;BME280;63998;52.488;13.428;2023-08-07T10:09:45;99943.88;;;18.22;62.75
75420;BME280;63998;52.488;13.428;2023-08-07T10:12:11;99941.91;;;18.27;62.35
75420;BME280;63998;52.488;13.428;2023-08-07T10:14:39;99935.59;;;18.31;61.13
75420;BME280;63998;52.488;13.428;2023-08-07T10:17:05;99963.19;;;18.21;60.76
75420;BME280;63998;52.488;13.428;2023-08-07T10:19:31;99938.28;;;18.30;60.12
75420;BME280;63998;52.488;13.428;2023-08-07T10:21:56;99943.09;;;18.41;60.28
75420;BME280;63998;52.488;13.428;2023-08-07T10:24:23;99936.78;;;18.45;60.50
75420;BME280;63998;52.488;13.428;2023-08-07T10:26:49;99945.88;;;18.58;60.69
75420;BME280;63998;52.488;13.428;2023-08-07T10:29:18;99972.22;;;18.36;60.02
75420;BME280;63998;52.488;13.428;2023-08-07T10:31:44;99942.38;;;18.37;59.76
75420;BME280;63998;52.488;13.428;2023-08-07T10:34:10;99940.72;;;18.35;59.35
75420;BME280;63998;52.488;13.428;2023-08-07T10:36:36;99938.91;;;18.37;59.19
75420;BME280;63998;52.488;13.428;2023-08-07T10:39:15;99940.13;;;18.48;59.20
75420;BME280;63998;52.488;13.428;2023-08-07T10:41:44;99925.22;;;18.49;59.48
75420;BME280;63998;52.488;13.428;2023-08-07T10:44:21;99936.03;;;18.63;59.23
75420;BME280;63998;52.488;13.428;2023-08-07T10:46:54;99943.25;;;18.78;58.38
75420;BME280;63998;52.488;13.428;2023-08-07T10:49:35;99929.00;;;18.82;58.41
75420;BME280;63998;52.488;13.428;2023-08-07T10:52:14;99936.66;;;18.68;58.47
75420;BME280;63998;52.488;13.428;2023-08-07T10:54:49;99936.84;;;18.84;58.16
75420;BME280;63998;52.488;13.428;2023-08-07T10:57:16;99937.56;;;18.67;58.88
75420;BME280;63998;52.488;13.428;2023-08-07T10:59:51;99937.13;;;18.78;58.50
75420;BME280;63998;52.488;13.428;2023-08-07T11:02:29;99948.09;;;18.67;58.27
75420;BME280;63998;52.488;13.428;2023-08-07T11:04:56;99933.28;;;18.66;58.23
75420;BME280;63998;52.488;13.428;2023-08-07T11:07:26;99953.22;;;18.70;58.55
75420;BME280;63998;52.488;13.428;2023-08-07T11:09:52;99947.06;;;18.71;58.22
75420;BME280;63998;52.488;13.428;2023-08-07T11:12:17;99971.53;;;18.73;59.63
75420;BME280;63998;52.488;13.428;2023-08-07T11:14:43;99953.34;;;18.47;61.77
75420;BME280;63998;52.488;13.428;2023-08-07T11:17:09;99964.41;;;18.35;63.82
75420;BME280;63998;52.488;13.428;2023-08-07T11:19:35;99972.16;;;18.17;65.66
75420;BME280;63998;52.488;13.428;2023-08-07T11:22:01;99970.78;;;18.07;65.32
75420;BME280;63998;52.488;13.428;2023-08-07T11:24:27;99977.22;;;18.00;66.80
75420;BME280;63998;52.488;13.428;2023-08-07T11:26:53;99977.13;;;18.03;66.02
75420;BME280;63998;52.488;13.428;2023-08-07T11:29:21;99958.84;;;18.00;66.03
75420;BME280;63998;52.488;13.428;2023-08-07T11:31:50;99964.31;;;17.94;66.36
75420;BME280;63998;52.488;13.428;2023-08-07T11:34:17;99965.81;;;17.79;65.98
75420;BME280;63998;52.488;13.428;2023-08-07T11:36:43;99965.63;;;17.84;66.07
75420;BME280;63998;52.488;13.428;2023-08-07T11:39:09;99972.06;;;17.77;66.13
75420;BME280;63998;52.488;13.428;2023-08-07T11:41:35;99969.53;;;17.74;65.80
75420;BME280;63998;52.488;13.428;2023-08-07T11:44:00;99969.38;;;17.78;66.26
75420;BME280;63998;52.488;13.428;2023-08-07T11:46:26;99991.25;;;17.79;66.69
75420;BME280;63998;52.488;13.428;2023-08-07T11:48:52;99978.88;;;17.81;68.95
75420;BME280;63998;52.488;13.428;2023-08-07T11:51:20;99979.81;;;17.80;69.67
75420;BME280;63998;52.488;13.428;2023-08-07T11:53:45;99987.56;;;18.05;69.06
75420;BME280;63998;52.488;13.428;2023-08-07T11:56:12;99992.56;;;18.11;70.17
75420;BME280;63998;52.488;13.428;2023-08-07T12:01:21;99963.59;;;18.12;67.40
75420;BME280;63998;52.488;13.428;2023-08-07T12:04:08;99960.97;;;18.33;66.33
75420;BME280;63998;52.488;13.428;2023-08-07T12:06:34;99952.16;;;18.34;65.32
75420;BME280;63998;52.488;13.428;2023-08-07T12:09:01;99956.66;;;18.52;64.81
75420;BME280;63998;52.488;13.428;2023-08-07T12:11:29;99968.88;;;18.53;64.41
75420;BME280;63998;52.488;13.428;2023-08-07T12:13:54;99955.19;;;18.45;63.52
75420;BME280;63998;52.488;13.428;2023-08-07T12:16:20;99966.31;;;18.51;63.06
75420;BME280;63998;52.488;13.428;2023-08-07T12:18:47;99946.06;;;18.53;62.01
75420;BME280;63998;52.488;13.428;2023-08-07T12:21:17;99951.75;;;18.43;62.07
75420;BME280;63998;52.488;13.428;2023-08-07T12:23:44;99953.47;;;18.44;63.14
75420;BME280;63998;52.488;13.428;2023-08-07T12:26:12;99958.19;;;18.56;63.57
75420;BME280;63998;52.488;13.428;2023-08-07T12:28:38;99964.59;;;18.50;62.58
75420;BME280;63998;52.488;13.428;2023-08-07T12:31:03;99944.41;;;18.51;62.70
75420;BME280;63998;52.488;13.428;2023-08-07T12:33:29;99959.47;;;18.47;62.40
75420;BME280;63998;52.488;13.428;2023-08-07T12:35:54;99961.75;;;18.55;62.86
75420;BME280;63998;52.488;13.428;2023-08-07T12:38:20;99952.72;;;18.62;62.41
75420;BME280;63998;52.488;13.428;2023-08-07T12:40:45;99947.13;;;18.70;62.55
75420;BME280;63998;52.488;13.428;2023-08-07T12:43:11;99961.00;;;18.73;62.18
75420;BME280;63998;52.488;13.428;2023-08-07T12:45:36;99964.69;;;18.69;63.05
75420;BME280;63998;52.488;13.428;2023-08-07T12:48:02;99957.44;;;18.74;63.48
75420;BME280;63998;52.488;13.428;2023-08-07T12:50:28;99970.72;;;18.91;63.83